aviador You're here:

EYVI Decoded Metar

VILNIUS INTL in LITHUANIA
Report Time2017-04-29 17:20:00
UTC Time2017-04-29 17:45:06
Flight Rules mvfr MVFR
Wind220° at 10 kt
W.Decomp.*RWY 20: 9.7 kt HW 2.4 kt RCW
W.Rank220° ranks 19
Current wind is above 220° avg. (7.9)
Visibility9999 m
Phenomena:N/A
Clouds:Overcast 025 Hf
Expected CloudBase > 1,200 ft AGL from Temp-Dew spread
Ceiling2,500 ft
Temp06°C (ISA -8)
Dew Point03°C (81% RH)
AAT0.9°C
QNH1014 hPa
Density Alt-210 ft
Elevation646 ft
Report Wrong Elevation
Raw Report
EYVI 291720Z 22010KT 9999 OVC025 06/03 Q1014 NOSIG=

Extra information for EYVI:More info

Metar Taf Metar & Taf Last 4 Metars F.Rules Stats Wind Profile Meteogram Temp Stats Airport Information Weather charts Add Link Nearby VenuesMetar ALERT Operation Metar Decoded Social comments